Time;durP1;ratioP1;P1;durP2;ratioP2;P2;SDS_P1;SDS_P2;PMS_P1;PMS_P2;Temp;Humidity;BMP_temperature;BMP_pressure;BME280_temperature;BME280_humidity;BME280_pressure;Samples;Min_cycle;Max_cycle;Signal;HPM_P1;HPM_P2
2021/11/08 00:00:13;;;;;;;2.88;1.88;;;;;;;;;;5037514;28;20225;-50
2021/11/08 00:02:39;;;;;;;2.63;2.00;;;;;;;;;;5037356;28;20543;-50
2021/11/08 00:05:06;;;;;;;4.38;1.90;;;;;;;;;;5036376;28;20567;-49
2021/11/08 00:07:32;;;;;;;2.45;1.88;;;;;;;;;;5036225;28;20238;-50
2021/11/08 00:09:58;;;;;;;2.03;1.80;;;;;;;;;;5036605;28;20200;-50
2021/11/08 00:12:25;;;;;;;2.40;1.80;;;;;;;;;;5037189;28;20529;-50
2021/11/08 00:14:57;;;;;;;1.90;1.75;;;;;;;;;;5035949;28;20188;-50
2021/11/08 00:17:44;;;;;;;2.75;1.60;;;;;;;;;;5036567;28;20554;-49
2021/11/08 00:20:13;;;;;;;3.97;1.92;;;;;;;;;;5036882;28;20590;-49
2021/11/08 00:22:40;;;;;;;2.65;1.70;;;;;;;;;;5036553;28;20630;-50
2021/11/08 00:25:07;;;;;;;3.20;1.65;;;;;;;;;;5035771;28;20172;-50
2021/11/08 00:27:35;;;;;;;2.30;1.85;;;;;;;;;;5036865;28;20175;-50
2021/11/08 00:30:01;;;;;;;2.40;1.63;;;;;;;;;;5034719;28;20184;-50
2021/11/08 00:32:27;;;;;;;2.08;1.52;;;;;;;;;;5035943;28;20263;-50
2021/11/08 00:34:54;;;;;;;1.60;1.48;;;;;;;;;;5036247;28;20188;-49
2021/11/08 00:37:20;;;;;;;1.77;1.58;;;;;;;;;;5037322;28;20306;-50
2021/11/08 00:39:46;;;;;;;2.03;1.60;;;;;;;;;;5037235;28;20186;-50
2021/11/08 00:42:12;;;;;;;1.95;1.50;;;;;;;;;;5036868;28;20593;-50
2021/11/08 00:44:38;;;;;;;1.90;1.70;;;;;;;;;;5036434;28;20568;-51
2021/11/08 00:47:08;;;;;;;1.90;1.58;;;;;;;;;;5034247;28;20190;-50
2021/11/08 00:49:34;;;;;;;2.03;1.60;;;;;;;;;;5037022;28;20214;-50
2021/11/08 00:52:00;;;;;;;2.03;1.38;;;;;;;;;;5035986;28;20522;-51
2021/11/08 00:54:26;;;;;;;1.48;1.33;;;;;;;;;;5035313;28;20187;-50
2021/11/08 00:56:53;;;;;;;1.38;1.25;;;;;;;;;;5035795;28;20196;-50
2021/11/08 00:59:19;;;;;;;1.67;1.48;;;;;;;;;;5035901;28;20552;-50
2021/11/08 01:01:51;;;;;;;1.40;1.30;;;;;;;;;;5040328;28;20199;-50
2021/11/08 01:04:20;;;;;;;3.00;1.58;;;;;;;;;;5039921;28;20184;-50
2021/11/08 01:06:48;;;;;;;2.05;1.50;;;;;;;;;;5029344;28;20475;-50
2021/11/08 01:09:15;;;;;;;1.40;1.25;;;;;;;;;;5036420;28;21597;-50
2021/11/08 01:11:41;;;;;;;2.40;1.83;;;;;;;;;;5036105;28;20420;-51
2021/11/08 01:14:07;;;;;;;1.48;1.20;;;;;;;;;;5035735;28;20195;-50
2021/11/08 01:16:33;;;;;;;1.42;1.10;;;;;;;;;;5035994;28;20290;-50
2021/11/08 01:18:59;;;;;;;2.53;1.25;;;;;;;;;;5036392;28;20168;-50
2021/11/08 01:21:25;;;;;;;1.25;1.20;;;;;;;;;;5035930;28;20447;-50
2021/11/08 01:23:52;;;;;;;1.85;1.40;;;;;;;;;;5035712;28;20183;-51
2021/11/08 01:26:18;;;;;;;1.45;1.25;;;;;;;;;;5036488;28;20180;-50
2021/11/08 01:28:48;;;;;;;1.30;1.10;;;;;;;;;;5036659;28;20613;-49
2021/11/08 01:31:16;;;;;;;1.20;1.08;;;;;;;;;;5035550;28;20559;-51
2021/11/08 01:33:47;;;;;;;1.10;1.02;;;;;;;;;;5034752;28;20183;-51
2021/11/08 01:36:14;;;;;;;2.72;1.13;;;;;;;;;;5035430;28;20306;-51
2021/11/08 01:38:44;;;;;;;1.80;1.15;;;;;;;;;;5034745;28;20547;-51
2021/11/08 01:41:11;;;;;;;1.65;1.42;;;;;;;;;;5035712;28;20171;-50
2021/11/08 01:43:37;;;;;;;2.17;1.40;;;;;;;;;;5034818;28;20195;-50
2021/11/08 01:46:04;;;;;;;1.45;1.30;;;;;;;;;;5035119;28;20571;-49
2021/11/08 01:48:30;;;;;;;1.52;1.17;;;;;;;;;;5034852;28;20194;-51
2021/11/08 01:50:56;;;;;;;1.05;1.05;;;;;;;;;;5035307;28;20250;-50
2021/11/08 01:53:23;;;;;;;1.75;1.10;;;;;;;;;;5034065;28;20188;-49
2021/11/08 01:55:50;;;;;;;1.90;1.30;;;;;;;;;;5034152;28;20200;-50
2021/11/08 01:58:17;;;;;;;1.40;1.20;;;;;;;;;;5035624;28;20214;-51
2021/11/08 02:00:43;;;;;;;1.25;1.15;;;;;;;;;;5035750;28;20176;-51
2021/11/08 02:03:11;;;;;;;1.60;1.20;;;;;;;;;;5034943;28;20191;-49
2021/11/08 02:05:37;;;;;;;1.73;1.00;;;;;;;;;;5035499;28;20180;-51
2021/11/08 02:08:03;;;;;;;1.58;1.10;;;;;;;;;;5035088;28;20254;-50
2021/11/08 02:10:29;;;;;;;0.95;0.90;;;;;;;;;;5034385;28;20179;-51
2021/11/08 02:12:55;;;;;;;1.02;0.93;;;;;;;;;;5035297;28;20194;-50
2021/11/08 02:15:21;;;;;;;1.55;1.02;;;;;;;;;;5035550;28;20176;-50
2021/11/08 02:17:48;;;;;;;1.88;1.10;;;;;;;;;;5035123;28;20231;-51
2021/11/08 02:20:17;;;;;;;1.52;0.90;;;;;;;;;;5035533;28;20184;-50
2021/11/08 02:22:44;;;;;;;1.75;1.30;;;;;;;;;;5035827;28;20229;-51
2021/11/08 02:25:10;;;;;;;2.45;1.17;;;;;;;;;;5035088;28;20306;-50
2021/11/08 02:27:39;;;;;;;0.88;0.88;;;;;;;;;;5034299;28;20176;-50
2021/11/08 02:30:06;;;;;;;1.77;1.10;;;;;;;;;;5035445;28;20184;-50
2021/11/08 02:32:33;;;;;;;1.70;1.10;;;;;;;;;;5035506;28;20187;-49
2021/11/08 02:35:00;;;;;;;2.20;1.02;;;;;;;;;;5034782;28;20188;-50
2021/11/08 02:37:27;;;;;;;1.30;1.20;;;;;;;;;;5035222;28;20192;-50
2021/11/08 02:39:53;;;;;;;1.30;0.90;;;;;;;;;;5035015;28;20221;-50
2021/11/08 02:42:20;;;;;;;1.77;1.50;;;;;;;;;;5034896;28;20173;-50
2021/11/08 02:44:46;;;;;;;1.45;1.10;;;;;;;;;;5033477;28;20243;-49
2021/11/08 02:47:14;;;;;;;2.20;1.20;;;;;;;;;;5034188;28;20191;-50
2021/11/08 02:49:43;;;;;;;1.48;1.08;;;;;;;;;;5034184;28;20253;-50
2021/11/08 02:52:10;;;;;;;1.15;1.05;;;;;;;;;;5034814;28;20559;-50
2021/11/08 02:54:45;;;;;;;1.50;1.10;;;;;;;;;;5033945;28;20192;-51
2021/11/08 02:57:11;;;;;;;1.67;1.00;;;;;;;;;;5034595;28;20669;-50
2021/11/08 02:59:38;;;;;;;1.10;1.00;;;;;;;;;;5034904;28;20180;-50
2021/11/08 03:02:06;;;;;;;1.73;1.00;;;;;;;;;;5019600;28;20180;-51
2021/11/08 03:04:37;;;;;;;1.42;1.10;;;;;;;;;;5027652;28;20180;-50
2021/11/08 03:07:03;;;;;;;1.75;1.00;;;;;;;;;;5034615;28;20574;-50
2021/11/08 03:09:32;;;;;;;1.35;0.93;;;;;;;;;;5034707;28;20179;-49
2021/11/08 03:12:02;;;;;;;0.90;0.90;;;;;;;;;;5034738;28;20183;-50
2021/11/08 03:14:31;;;;;;;2.08;0.90;;;;;;;;;;5032356;28;20204;-50
2021/11/08 03:16:59;;;;;;;2.92;1.20;;;;;;;;;;5024913;28;20217;-51
2021/11/08 03:19:34;;;;;;;1.45;1.00;;;;;;;;;;5038427;28;20580;-49
2021/11/08 03:22:01;;;;;;;0.80;0.80;;;;;;;;;;5037842;28;20164;-50
2021/11/08 03:27:05;;;;;;;1.38;1.02;;;;;;;;;;5036914;28;20287;-50
2021/11/08 03:29:32;;;;;;;1.90;1.25;;;;;;;;;;5029098;28;20235;-50
2021/11/08 03:32:00;;;;;;;1.17;1.08;;;;;;;;;;5029089;28;20672;-51
2021/11/08 03:34:28;;;;;;;1.75;1.20;;;;;;;;;;5037604;28;20525;-51
2021/11/08 03:36:54;;;;;;;1.58;1.00;;;;;;;;;;5037870;28;20273;-50
2021/11/08 03:39:21;;;;;;;1.88;1.10;;;;;;;;;;5037682;28;20218;-50
2021/11/08 03:41:47;;;;;;;1.05;0.90;;;;;;;;;;5037697;28;20195;-50
2021/11/08 03:44:13;;;;;;;1.70;1.08;;;;;;;;;;5024845;28;20180;-50
2021/11/08 03:46:39;;;;;;;1.42;1.13;;;;;;;;;;5034601;28;20184;-50
2021/11/08 03:49:05;;;;;;;1.50;1.00;;;;;;;;;;5037116;28;20202;-49
2021/11/08 03:51:33;;;;;;;1.48;1.10;;;;;;;;;;5037765;28;20206;-51
2021/11/08 03:53:59;;;;;;;1.63;1.00;;;;;;;;;;5036831;28;20446;-50
2021/11/08 03:56:25;;;;;;;2.17;1.15;;;;;;;;;;5036213;28;20204;-50
2021/11/08 03:58:51;;;;;;;1.85;1.00;;;;;;;;;;5031284;28;20190;-51
2021/11/08 04:01:18;;;;;;;0.90;0.80;;;;;;;;;;5037103;28;20537;-50
2021/11/08 04:03:44;;;;;;;1.73;1.00;;;;;;;;;;5036831;28;20511;-51
2021/11/08 04:06:11;;;;;;;1.33;0.73;;;;;;;;;;5031036;28;20208;-50
2021/11/08 04:08:37;;;;;;;1.88;0.93;;;;;;;;;;5037175;28;20195;-49
2021/11/08 04:11:03;;;;;;;1.00;0.88;;;;;;;;;;5033941;28;20196;-51
2021/11/08 04:13:33;;;;;;;1.45;1.02;;;;;;;;;;5030230;28;20474;-50
2021/11/08 04:16:01;;;;;;;0.95;0.90;;;;;;;;;;5036454;28;20200;-51
2021/11/08 04:18:28;;;;;;;1.55;0.90;;;;;;;;;;5037171;28;20175;-51
2021/11/08 04:20:54;;;;;;;1.27;0.70;;;;;;;;;;5037746;28;20253;-50
2021/11/08 04:23:21;;;;;;;1.25;0.75;;;;;;;;;;5036729;28;20180;-50
2021/11/08 04:25:47;;;;;;;1.85;0.88;;;;;;;;;;5032870;28;20229;-50
2021/11/08 04:28:13;;;;;;;1.40;1.13;;;;;;;;;;5036014;28;20234;-51
2021/11/08 04:30:44;;;;;;;1.48;0.98;;;;;;;;;;5036816;28;20280;-51
2021/11/08 04:33:18;;;;;;;1.02;0.90;;;;;;;;;;5037047;28;20172;-50
2021/11/08 04:47:10;;;;;;;1.15;0.90;;;;;;;;;;5036784;28;20191;-50
2021/11/08 04:51:53;;;;;;;1.17;0.82;;;;;;;;;;5036977;28;20286;-50
2021/11/08 05:24:47;;;;;;;2.10;1.20;;;;;;;;;;5036089;28;20258;-51
2021/11/08 05:32:19;;;;;;;4.18;1.20;;;;;;;;;;5036207;28;20184;-51
2021/11/08 05:34:45;;;;;;;2.45;1.10;;;;;;;;;;5035639;28;20172;-50
2021/11/08 05:37:11;;;;;;;3.50;1.20;;;;;;;;;;5030973;28;20294;-49
2021/11/08 05:39:38;;;;;;;2.92;1.17;;;;;;;;;;5035768;28;20566;-49
2021/11/08 05:42:04;;;;;;;2.97;1.20;;;;;;;;;;5036101;28;20164;-51
2021/11/08 05:44:31;;;;;;;4.57;1.02;;;;;;;;;;5035309;28;20207;-50
2021/11/08 05:46:58;;;;;;;2.42;1.05;;;;;;;;;;5035011;28;20214;-51
2021/11/08 05:49:24;;;;;;;2.15;1.10;;;;;;;;;;5034323;28;20347;-50
2021/11/08 05:51:50;;;;;;;4.88;1.42;;;;;;;;;;5034256;28;20180;-51
2021/11/08 05:54:19;;;;;;;3.15;1.00;;;;;;;;;;5026921;28;20225;-50
2021/11/08 06:51:32;;;;;;;4.88;1.77;;;;;;;;;;5034289;28;20566;-50
2021/11/08 06:54:02;;;;;;;2.47;1.10;;;;;;;;;;5036964;28;20187;-50
2021/11/08 06:56:32;;;;;;;3.88;1.40;;;;;;;;;;5037250;28;20192;-50
2021/11/08 06:58:58;;;;;;;3.00;1.35;;;;;;;;;;5037784;28;20183;-50
2021/11/08 07:01:28;;;;;;;3.13;1.35;;;;;;;;;;5034621;28;20440;-49
2021/11/08 07:03:54;;;;;;;3.53;1.38;;;;;;;;;;5037812;28;20226;-50
2021/11/08 07:06:20;;;;;;;3.45;1.30;;;;;;;;;;5037615;28;20539;-51
2021/11/08 07:08:46;;;;;;;5.35;1.50;;;;;;;;;;5038286;28;20250;-50
2021/11/08 07:11:12;;;;;;;7.65;1.95;;;;;;;;;;5038362;28;20186;-51
2021/11/08 07:13:38;;;;;;;4.25;1.85;;;;;;;;;;5037804;28;20578;-51
2021/11/08 07:16:04;;;;;;;4.25;1.80;;;;;;;;;;5033590;28;20295;-50
2021/11/08 07:18:30;;;;;;;4.95;1.58;;;;;;;;;;5036058;28;20275;-50
2021/11/08 07:20:56;;;;;;;4.13;1.50;;;;;;;;;;5037452;28;20647;-51
2021/11/08 07:23:22;;;;;;;3.33;1.88;;;;;;;;;;5037656;28;20178;-50
2021/11/08 07:25:48;;;;;;;4.80;1.67;;;;;;;;;;5037690;28;20226;-51
2021/11/08 07:28:15;;;;;;;2.80;1.38;;;;;;;;;;5037422;28;20179;-50
2021/11/08 07:30:44;;;;;;;3.67;1.60;;;;;;;;;;5037237;28;20692;-51
2021/11/08 07:33:10;;;;;;;6.28;1.63;;;;;;;;;;5038652;28;20180;-51
2021/11/08 07:35:36;;;;;;;3.55;1.65;;;;;;;;;;5054714;28;20650;-51
2021/11/08 07:38:02;;;;;;;2.97;1.50;;;;;;;;;;5057435;28;20245;-52
2021/11/08 07:40:28;;;;;;;2.58;1.33;;;;;;;;;;5041396;28;20207;-50
2021/11/08 07:42:54;;;;;;;4.43;1.83;;;;;;;;;;5036447;28;20211;-51
2021/11/08 07:45:21;;;;;;;3.58;1.63;;;;;;;;;;5036144;28;20172;-50
2021/11/08 07:47:47;;;;;;;4.38;1.60;;;;;;;;;;5036946;28;20245;-50
2021/11/08 07:50:13;;;;;;;2.88;1.35;;;;;;;;;;5037302;28;20234;-50
2021/11/08 07:52:39;;;;;;;4.07;1.70;;;;;;;;;;5037099;28;20188;-50
2021/11/08 07:55:06;;;;;;;4.47;1.38;;;;;;;;;;5036494;28;20180;-50
2021/11/08 07:57:32;;;;;;;2.33;1.27;;;;;;;;;;5027219;28;20191;-50
2021/11/08 07:59:58;;;;;;;3.80;1.73;;;;;;;;;;5036879;28;20183;-49
2021/11/08 08:02:24;;;;;;;3.88;1.75;;;;;;;;;;5036532;28;20455;-51
2021/11/08 08:04:50;;;;;;;3.25;1.30;;;;;;;;;;5035117;28;20190;-51
2021/11/08 08:07:16;;;;;;;3.28;1.40;;;;;;;;;;5036326;28;20183;-51
2021/11/08 08:09:42;;;;;;;2.50;1.40;;;;;;;;;;5035717;28;20184;-52
2021/11/08 08:12:09;;;;;;;3.38;1.48;;;;;;;;;;5034680;28;20180;-50
2021/11/08 08:14:35;;;;;;;4.30;1.60;;;;;;;;;;5035338;28;20215;-50
2021/11/08 08:17:01;;;;;;;3.60;1.60;;;;;;;;;;5036167;28;20596;-51
2021/11/08 08:19:28;;;;;;;3.75;1.38;;;;;;;;;;5036469;28;20448;-51
2021/11/08 08:21:54;;;;;;;2.80;1.17;;;;;;;;;;5035880;28;20602;-50
2021/11/08 08:24:20;;;;;;;2.30;1.20;;;;;;;;;;5035542;28;20543;-51
2021/11/08 08:26:46;;;;;;;1.67;1.13;;;;;;;;;;5036412;28;20555;-51
2021/11/08 08:29:13;;;;;;;1.83;1.25;;;;;;;;;;5035835;28;20184;-49
2021/11/08 08:31:40;;;;;;;3.75;1.30;;;;;;;;;;5035987;28;20599;-50
2021/11/08 08:34:08;;;;;;;2.33;1.58;;;;;;;;;;5035757;28;20195;-50
2021/11/08 08:36:34;;;;;;;1.73;1.27;;;;;;;;;;5036136;28;20204;-51
2021/11/08 08:39:01;;;;;;;2.90;1.52;;;;;;;;;;5035164;28;20441;-50
2021/11/08 08:41:27;;;;;;;4.13;1.40;;;;;;;;;;5036266;28;20183;-51
2021/11/08 08:43:53;;;;;;;3.03;1.73;;;;;;;;;;5035868;28;20241;-51
2021/11/08 08:46:20;;;;;;;2.13;1.20;;;;;;;;;;5034824;28;20278;-50
2021/11/08 08:48:46;;;;;;;3.35;1.20;;;;;;;;;;5035219;28;20208;-51
2021/11/08 08:51:12;;;;;;;2.97;1.35;;;;;;;;;;5036296;28;20200;-52
2021/11/08 08:53:38;;;;;;;2.70;1.20;;;;;;;;;;5035736;28;20210;-49
2021/11/08 08:56:05;;;;;;;3.13;1.60;;;;;;;;;;5033771;28;20257;-49
2021/11/08 08:58:31;;;;;;;2.00;1.30;;;;;;;;;;5035890;28;20192;-50
2021/11/08 09:00:58;;;;;;;2.53;1.10;;;;;;;;;;5035506;28;20186;-51
2021/11/08 09:03:24;;;;;;;1.67;0.90;;;;;;;;;;5035450;28;20191;-50
2021/11/08 09:05:51;;;;;;;2.13;1.20;;;;;;;;;;5035208;28;20203;-50
2021/11/08 09:08:20;;;;;;;1.90;1.17;;;;;;;;;;5035621;28;20171;-50
2021/11/08 09:10:46;;;;;;;2.40;1.23;;;;;;;;;;5035669;28;20435;-50
2021/11/08 09:13:12;;;;;;;1.50;0.98;;;;;;;;;;5028087;28;20191;-50
2021/11/08 09:15:39;;;;;;;1.70;1.10;;;;;;;;;;5035226;28;20218;-51
2021/11/08 09:18:06;;;;;;;1.00;0.90;;;;;;;;;;5035283;28;20195;-49
2021/11/08 09:20:32;;;;;;;1.60;1.02;;;;;;;;;;5035331;28;20275;-49
2021/11/08 09:22:59;;;;;;;2.20;1.10;;;;;;;;;;5035186;28;20484;-50
2021/11/08 09:25:26;;;;;;;2.03;1.30;;;;;;;;;;5035244;28;20168;-52
2021/11/08 09:27:54;;;;;;;1.77;1.10;;;;;;;;;;5035589;28;20182;-51
2021/11/08 09:30:22;;;;;;;2.45;1.13;;;;;;;;;;5018528;28;20292;-49
2021/11/08 09:32:48;;;;;;;2.20;0.95;;;;;;;;;;5015532;28;20439;-50
2021/11/08 09:35:14;;;;;;;1.88;0.95;;;;;;;;;;5015390;28;20548;-51
2021/11/08 09:37:44;;;;;;;2.03;1.10;;;;;;;;;;5015553;28;20211;-50
2021/11/08 09:40:12;;;;;;;2.13;1.15;;;;;;;;;;5015583;28;20196;-49
2021/11/08 09:42:39;;;;;;;1.80;1.15;;;;;;;;;;5015792;28;20252;-50
2021/11/08 09:45:05;;;;;;;2.35;1.30;;;;;;;;;;5016135;28;20181;-51
2021/11/08 09:47:32;;;;;;;1.98;1.10;;;;;;;;;;5031774;28;20234;-49
2021/11/08 09:50:01;;;;;;;1.52;0.93;;;;;;;;;;5035121;28;20183;-51
2021/11/08 09:52:28;;;;;;;1.73;1.05;;;;;;;;;;5034958;28;20191;-50
2021/11/08 09:54:56;;;;;;;2.05;1.23;;;;;;;;;;5034731;28;20620;-51
2021/11/08 09:57:24;;;;;;;2.42;1.40;;;;;;;;;;5020549;28;20655;-49
2021/11/08 09:59:51;;;;;;;1.50;1.10;;;;;;;;;;5015356;28;20267;-51
2021/11/08 10:02:18;;;;;;;0.95;0.95;;;;;;;;;;5015225;28;20188;-49
2021/11/08 10:04:44;;;;;;;2.50;1.10;;;;;;;;;;5014688;28;20264;-49
2021/11/08 10:07:11;;;;;;;2.33;0.95;;;;;;;;;;5030580;28;20195;-50
2021/11/08 10:09:38;;;;;;;1.45;1.02;;;;;;;;;;5035005;28;20172;-51
2021/11/08 10:12:11;;;;;;;0.93;0.90;;;;;;;;;;5030387;28;20180;-49
2021/11/08 10:14:38;;;;;;;3.55;1.20;;;;;;;;;;5014610;28;20191;-49
2021/11/08 10:17:04;;;;;;;1.30;1.00;;;;;;;;;;5014858;28;20208;-50
2021/11/08 10:19:35;;;;;;;1.55;1.02;;;;;;;;;;5017156;28;20255;-50
2021/11/08 10:22:02;;;;;;;1.40;1.00;;;;;;;;;;5033501;28;20571;-50
2021/11/08 10:24:30;;;;;;;1.75;1.00;;;;;;;;;;5033416;28;20184;-50
2021/11/08 10:26:57;;;;;;;1.70;0.88;;;;;;;;;;5033590;28;20183;-49
2021/11/08 10:29:24;;;;;;;1.92;1.00;;;;;;;;;;5033984;28;20187;-50
2021/11/08 10:31:52;;;;;;;2.38;1.20;;;;;;;;;;5034525;28;20168;-51
2021/11/08 10:34:19;;;;;;;1.63;1.00;;;;;;;;;;5033391;28;20184;-51
2021/11/08 10:36:45;;;;;;;0.80;0.80;;;;;;;;;;5034423;28;20601;-50
2021/11/08 10:39:12;;;;;;;1.58;1.00;;;;;;;;;;5030991;28;20233;-50
2021/11/08 10:41:43;;;;;;;1.40;0.95;;;;;;;;;;5034641;28;20186;-50
2021/11/08 10:44:16;;;;;;;1.27;0.90;;;;;;;;;;5034072;28;20187;-50
2021/11/08 10:46:43;;;;;;;1.48;1.15;;;;;;;;;;5033931;28;20184;-50
2021/11/08 10:49:14;;;;;;;2.47;1.10;;;;;;;;;;5033640;28;20187;-51
2021/11/08 10:51:41;;;;;;;2.28;1.20;;;;;;;;;;5034332;28;20176;-51
2021/11/08 10:54:09;;;;;;;1.27;0.88;;;;;;;;;;5016214;28;20192;-50
2021/11/08 10:56:36;;;;;;;1.90;1.05;;;;;;;;;;5014452;28;20220;-50
2021/11/08 10:59:09;;;;;;;1.50;0.98;;;;;;;;;;5014399;28;20172;-50
2021/11/08 11:01:36;;;;;;;1.20;0.82;;;;;;;;;;5014668;28;20176;-50
2021/11/08 11:04:04;;;;;;;1.70;0.90;;;;;;;;;;5013964;28;20187;-50
2021/11/08 11:06:41;;;;;;;1.92;1.10;;;;;;;;;;5024136;28;20175;-51
2021/11/08 11:09:13;;;;;;;0.80;0.73;;;;;;;;;;5033131;28;20250;-49
2021/11/08 11:11:39;;;;;;;1.77;1.00;;;;;;;;;;5032958;28;20653;-51
2021/11/08 11:14:05;;;;;;;0.80;0.80;;;;;;;;;;5031327;28;20171;-50
2021/11/08 11:16:36;;;;;;;1.52;0.90;;;;;;;;;;5033402;28;20282;-51
2021/11/08 11:19:05;;;;;;;1.77;0.95;;;;;;;;;;5034096;28;20487;-50
2021/11/08 11:21:31;;;;;;;1.85;1.05;;;;;;;;;;5022428;28;20207;-52
2021/11/08 11:24:02;;;;;;;1.23;0.80;;;;;;;;;;5013899;28;20185;-50
2021/11/08 11:26:30;;;;;;;1.27;0.70;;;;;;;;;;5014340;28;20200;-50
2021/11/08 11:28:57;;;;;;;0.88;0.70;;;;;;;;;;5020372;28;20186;-50
2021/11/08 11:31:24;;;;;;;1.40;0.82;;;;;;;;;;5034032;28;20225;-51
2021/11/08 11:33:55;;;;;;;1.20;0.80;;;;;;;;;;5033557;28;20172;-50
2021/11/08 11:36:22;;;;;;;1.63;0.95;;;;;;;;;;5033223;28;20199;-50
2021/11/08 11:39:01;;;;;;;1.38;0.98;;;;;;;;;;5034952;28;20469;-49
2021/11/08 11:41:30;;;;;;;1.95;1.10;;;;;;;;;;5037575;28;20170;-51
2021/11/08 11:44:00;;;;;;;1.38;0.95;;;;;;;;;;5036589;28;20176;-50
2021/11/08 11:46:30;;;;;;;0.98;0.68;;;;;;;;;;5037155;28;20207;-50
2021/11/08 11:48:57;;;;;;;0.90;0.70;;;;;;;;;;5031264;28;20284;-51
2021/11/08 11:51:25;;;;;;;0.75;0.60;;;;;;;;;;5017627;28;20227;-49
2021/11/08 11:53:51;;;;;;;1.20;0.93;;;;;;;;;;5036003;28;20183;-50
2021/11/08 11:56:18;;;;;;;1.08;0.90;;;;;;;;;;5037300;28;20191;-49
2021/11/08 11:58:45;;;;;;;1.33;0.90;;;;;;;;;;5037203;28;20179;-50
2021/11/08 12:01:13;;;;;;;1.70;0.90;;;;;;;;;;5037047;28;20164;-51
2021/11/08 12:03:39;;;;;;;1.35;1.00;;;;;;;;;;5032834;28;20571;-51
2021/11/08 12:06:06;;;;;;;0.88;0.80;;;;;;;;;;5037037;28;20186;-50
2021/11/08 12:08:36;;;;;;;2.15;1.00;;;;;;;;;;5036971;28;20172;-50
2021/11/08 12:11:02;;;;;;;0.95;0.80;;;;;;;;;;5037185;28;20164;-51
2021/11/08 12:13:29;;;;;;;1.42;0.80;;;;;;;;;;5036627;28;20171;-51
2021/11/08 12:15:57;;;;;;;1.65;0.90;;;;;;;;;;5036848;28;20179;-49
2021/11/08 12:18:23;;;;;;;1.20;0.75;;;;;;;;;;5035751;28;20310;-51
2021/11/08 12:20:51;;;;;;;1.75;0.80;;;;;;;;;;5036774;28;20407;-49
2021/11/08 12:23:18;;;;;;;2.28;1.00;;;;;;;;;;5036344;28;20246;-50
2021/11/08 12:25:45;;;;;;;1.35;0.90;;;;;;;;;;5036845;28;20160;-49
2021/11/08 12:28:16;;;;;;;1.15;0.80;;;;;;;;;;5037127;28;20595;-51
2021/11/08 12:30:44;;;;;;;1.10;0.73;;;;;;;;;;5034231;28;20230;-50
2021/11/08 12:33:31;;;;;;;0.80;0.73;;;;;;;;;;5016501;28;20218;-50
2021/11/08 12:36:15;;;;;;;0.50;0.50;;;;;;;;;;5016902;28;20429;-50
2021/11/08 12:38:44;;;;;;;1.92;0.90;;;;;;;;;;5016892;28;20172;-49
2021/11/08 12:41:15;;;;;;;1.25;0.93;;;;;;;;;;5016665;28;20552;-50
2021/11/08 12:43:43;;;;;;;1.30;0.90;;;;;;;;;;5016435;28;20200;-51
2021/11/08 12:46:11;;;;;;;1.05;0.70;;;;;;;;;;5029200;28;20187;-51
2021/11/08 12:48:37;;;;;;;0.60;0.60;;;;;;;;;;5036143;28;20562;-49
2021/11/08 12:51:04;;;;;;;1.08;0.80;;;;;;;;;;5023544;28;20180;-50
2021/11/08 12:53:32;;;;;;;1.00;0.82;;;;;;;;;;5015969;28;20169;-49
2021/11/08 12:55:59;;;;;;;0.80;0.80;;;;;;;;;;5033622;28;20188;-50
2021/11/08 12:58:38;;;;;;;0.95;0.73;;;;;;;;;;5036004;28;20183;-51
2021/11/08 13:01:07;;;;;;;1.55;0.60;;;;;;;;;;5036190;28;20179;-50
2021/11/08 13:03:40;;;;;;;0.88;0.80;;;;;;;;;;5034982;28;20188;-49
2021/11/08 13:06:08;;;;;;;0.90;0.60;;;;;;;;;;5035796;28;20230;-51
2021/11/08 13:08:35;;;;;;;0.75;0.52;;;;;;;;;;5036011;28;20176;-49
2021/11/08 13:11:13;;;;;;;1.00;0.90;;;;;;;;;;5035699;28;20563;-49
2021/11/08 13:13:56;;;;;;;0.80;0.70;;;;;;;;;;5031050;28;20194;-50
2021/11/08 13:16:32;;;;;;;0.55;0.55;;;;;;;;;;5035217;28;20591;-50
2021/11/08 13:19:03;;;;;;;0.93;0.65;;;;;;;;;;5035933;28;20293;-50
2021/11/08 13:21:30;;;;;;;0.82;0.73;;;;;;;;;;5035301;28;20180;-50
2021/11/08 13:23:56;;;;;;;1.40;0.98;;;;;;;;;;5034731;28;20187;-49
2021/11/08 13:26:23;;;;;;;1.95;1.05;;;;;;;;;;5035418;28;20445;-50
2021/11/08 13:28:49;;;;;;;1.35;0.90;;;;;;;;;;5035100;28;20187;-50
2021/11/08 13:31:16;;;;;;;0.65;0.55;;;;;;;;;;5035293;28;20172;-50
2021/11/08 13:33:47;;;;;;;1.10;0.70;;;;;;;;;;5034600;28;20167;-50
2021/11/08 13:36:14;;;;;;;0.95;0.70;;;;;;;;;;5035356;28;20278;-51
2021/11/08 13:38:46;;;;;;;0.45;0.43;;;;;;;;;;5035438;28;20405;-50
2021/11/08 13:41:16;;;;;;;1.42;0.63;;;;;;;;;;5032494;28;20203;-50
2021/11/08 13:43:44;;;;;;;1.95;0.82;;;;;;;;;;5031270;28;20451;-50
2021/11/08 13:46:14;;;;;;;0.85;0.50;;;;;;;;;;5035032;28;20238;-51
2021/11/08 13:48:43;;;;;;;0.60;0.57;;;;;;;;;;5034114;28;20182;-50
2021/11/08 13:51:21;;;;;;;0.95;0.70;;;;;;;;;;5035155;28;20650;-49
2021/11/08 13:53:52;;;;;;;0.77;0.52;;;;;;;;;;5034468;28;20259;-49
2021/11/08 13:56:18;;;;;;;0.60;0.60;;;;;;;;;;5034197;28;20203;-51
2021/11/08 13:58:50;;;;;;;1.30;0.70;;;;;;;;;;5035095;28;20176;-49
2021/11/08 14:01:16;;;;;;;1.02;0.70;;;;;;;;;;5034594;28;20484;-51
2021/11/08 14:03:44;;;;;;;0.60;0.55;;;;;;;;;;5033769;28;20179;-50
2021/11/08 14:06:13;;;;;;;1.10;0.50;;;;;;;;;;5034736;28;20191;-50
2021/11/08 14:08:46;;;;;;;1.70;0.80;;;;;;;;;;5034488;28;20191;-49
2021/11/08 14:11:12;;;;;;;0.52;0.52;;;;;;;;;;5033849;28;20193;-49
2021/11/08 14:13:40;;;;;;;0.50;0.50;;;;;;;;;;5034417;28;20250;-49
2021/11/08 14:16:08;;;;;;;0.65;0.55;;;;;;;;;;5034519;28;20164;-49
2021/11/08 14:18:34;;;;;;;1.15;0.60;;;;;;;;;;5034824;28;20191;-50
2021/11/08 14:21:07;;;;;;;0.52;0.47;;;;;;;;;;5034479;28;20571;-50
2021/11/08 14:23:35;;;;;;;0.60;0.55;;;;;;;;;;5033652;28;20203;-50
2021/11/08 14:26:18;;;;;;;0.50;0.50;;;;;;;;;;5034562;28;20174;-49
2021/11/08 14:28:45;;;;;;;0.52;0.52;;;;;;;;;;5034118;28;20491;-49
2021/11/08 14:31:38;;;;;;;0.60;0.60;;;;;;;;;;5034592;28;20429;-50
2021/11/08 14:34:07;;;;;;;0.70;0.60;;;;;;;;;;5033319;28;20288;-49
2021/11/08 14:36:39;;;;;;;1.13;0.70;;;;;;;;;;5033537;28;20195;-51
2021/11/08 14:39:08;;;;;;;1.98;0.70;;;;;;;;;;5033599;28;20233;-49
2021/11/08 14:41:34;;;;;;;0.85;0.75;;;;;;;;;;5034473;28;20191;-49
2021/11/08 14:44:03;;;;;;;0.60;0.60;;;;;;;;;;5033868;28;20199;-50
2021/11/08 14:46:43;;;;;;;1.17;0.75;;;;;;;;;;5033982;28;20218;-49
2021/11/08 14:49:15;;;;;;;1.83;0.75;;;;;;;;;;5033882;28;20179;-50
2021/11/08 14:51:41;;;;;;;1.50;0.88;;;;;;;;;;5033674;28;20276;-50
2021/11/08 14:54:07;;;;;;;0.82;0.70;;;;;;;;;;5033934;28;20176;-50
2021/11/08 14:56:36;;;;;;;0.95;0.63;;;;;;;;;;5033951;28;20191;-50
2021/11/08 14:59:05;;;;;;;1.60;0.70;;;;;;;;;;5034168;28;20164;-50
2021/11/08 15:01:31;;;;;;;2.05;0.80;;;;;;;;;;5032260;28;20241;-49
2021/11/08 15:04:04;;;;;;;3.40;0.75;;;;;;;;;;5029956;28;20194;-50
2021/11/08 15:06:30;;;;;;;3.85;0.70;;;;;;;;;;5031808;28;20192;-49
2021/11/08 15:09:04;;;;;;;3.45;0.65;;;;;;;;;;5034034;28;20172;-50
2021/11/08 15:11:30;;;;;;;2.25;0.90;;;;;;;;;;5034178;28;20179;-50
2021/11/08 15:14:03;;;;;;;2.70;0.77;;;;;;;;;;5035253;28;20460;-50
2021/11/08 15:16:29;;;;;;;2.95;0.90;;;;;;;;;;5037567;28;20559;-50
2021/11/08 15:19:03;;;;;;;4.05;0.80;;;;;;;;;;5038006;28;20168;-50
2021/11/08 15:21:35;;;;;;;1.40;0.75;;;;;;;;;;5037242;28;20175;-50
2021/11/08 15:24:12;;;;;;;1.10;0.82;;;;;;;;;;5037462;28;20163;-50
2021/11/08 15:26:39;;;;;;;3.95;0.85;;;;;;;;;;5037548;28;20199;-50
2021/11/08 15:29:13;;;;;;;1.80;0.70;;;;;;;;;;5037621;28;20160;-50
2021/11/08 15:31:40;;;;;;;3.80;0.90;;;;;;;;;;5037694;28;20184;-50
2021/11/08 15:34:13;;;;;;;1.75;0.90;;;;;;;;;;5036473;28;20183;-50
2021/11/08 15:36:41;;;;;;;2.38;0.80;;;;;;;;;;5037572;28;20571;-50
2021/11/08 15:39:12;;;;;;;1.95;0.60;;;;;;;;;;5037330;28;20297;-50
2021/11/08 15:41:39;;;;;;;0.95;0.70;;;;;;;;;;5037689;28;20225;-49
2021/11/08 15:44:05;;;;;;;1.38;0.55;;;;;;;;;;5037204;28;20198;-49
2021/11/08 15:46:32;;;;;;;1.48;0.82;;;;;;;;;;5036641;28;20606;-49
2021/11/08 15:48:58;;;;;;;2.47;0.80;;;;;;;;;;5036579;28;20892;-50
2021/11/08 15:51:25;;;;;;;2.28;0.77;;;;;;;;;;5027323;28;20606;-49
2021/11/08 15:53:52;;;;;;;2.00;0.70;;;;;;;;;;5017037;28;20192;-50
2021/11/08 15:56:18;;;;;;;0.73;0.70;;;;;;;;;;5017463;28;20177;-50
2021/11/08 15:58:44;;;;;;;1.35;0.70;;;;;;;;;;5035477;28;20459;-50
2021/11/08 16:01:10;;;;;;;1.38;0.82;;;;;;;;;;5037122;28;20207;-50
2021/11/08 16:03:37;;;;;;;1.02;0.60;;;;;;;;;;5036130;28;20183;-50
2021/11/08 16:06:03;;;;;;;2.80;0.73;;;;;;;;;;5037154;28;20226;-49
2021/11/08 16:08:29;;;;;;;0.90;0.80;;;;;;;;;;5025210;28;20208;-50
2021/11/08 16:10:55;;;;;;;1.17;0.80;;;;;;;;;;5016569;28;20168;-50
2021/11/08 16:13:21;;;;;;;2.85;0.82;;;;;;;;;;5023752;28;20183;-50
2021/11/08 16:15:48;;;;;;;1.40;0.95;;;;;;;;;;5036598;28;20195;-50
2021/11/08 16:18:15;;;;;;;2.22;0.90;;;;;;;;;;5036924;28;20475;-50
2021/11/08 16:20:42;;;;;;;2.85;0.90;;;;;;;;;;5037146;28;20172;-50
2021/11/08 16:23:09;;;;;;;2.83;1.02;;;;;;;;;;5036655;28;20172;-50
2021/11/08 16:25:38;;;;;;;1.13;0.73;;;;;;;;;;5020174;28;20176;-49
2021/11/08 16:28:04;;;;;;;0.80;0.80;;;;;;;;;;5036629;28;20179;-50
2021/11/08 16:30:30;;;;;;;0.70;0.70;;;;;;;;;;5036648;28;20245;-50
2021/11/08 16:32:56;;;;;;;1.95;0.98;;;;;;;;;;5036411;28;20212;-50